sensor_id;sensor_type;location;lat;lon;timestamp;P1;durP1;ratioP1;P2;durP2;ratioP2
19810;SDS011;10065;49.632;8.346;2023-03-01T00:01:13;14.30;;;7.27;;
19810;SDS011;10065;49.632;8.346;2023-03-01T00:03:41;16.40;;;8.50;;
19810;SDS011;10065;49.632;8.346;2023-03-01T00:06:11;15.60;;;7.93;;
19810;SDS011;10065;49.632;8.346;2023-03-01T00:08:39;13.97;;;6.97;;
19810;SDS011;10065;49.632;8.346;2023-03-01T00:11:07;16.13;;;7.63;;
19810;SDS011;10065;49.632;8.346;2023-03-01T00:13:37;15.87;;;8.07;;
19810;SDS011;10065;49.632;8.346;2023-03-01T00:16:05;17.47;;;7.27;;
19810;SDS011;10065;49.632;8.346;2023-03-01T00:18:35;15.03;;;7.87;;
19810;SDS011;10065;49.632;8.346;2023-03-01T00:21:03;14.10;;;6.90;;
19810;SDS011;10065;49.632;8.346;2023-03-01T00:23:33;19.37;;;7.50;;
19810;SDS011;10065;49.632;8.346;2023-03-01T00:26:01;15.90;;;8.27;;
19810;SDS011;10065;49.632;8.346;2023-03-01T00:28:29;22.93;;;9.80;;
19810;SDS011;10065;49.632;8.346;2023-03-01T00:30:57;17.77;;;7.90;;
19810;SDS011;10065;49.632;8.346;2023-03-01T00:33:30;16.53;;;8.00;;
19810;SDS011;10065;49.632;8.346;2023-03-01T00:35:58;14.47;;;7.80;;
19810;SDS011;10065;49.632;8.346;2023-03-01T00:38:26;13.63;;;7.97;;
19810;SDS011;10065;49.632;8.346;2023-03-01T00:40:56;16.83;;;7.87;;
19810;SDS011;10065;49.632;8.346;2023-03-01T00:43:30;16.57;;;7.83;;
19810;SDS011;10065;49.632;8.346;2023-03-01T00:46:03;16.57;;;8.17;;
19810;SDS011;10065;49.632;8.346;2023-03-01T00:48:31;16.17;;;8.40;;
19810;SDS011;10065;49.632;8.346;2023-03-01T00:51:03;15.33;;;8.37;;
19810;SDS011;10065;49.632;8.346;2023-03-01T00:53:32;16.60;;;8.17;;
19810;SDS011;10065;49.632;8.346;2023-03-01T00:56:02;18.40;;;7.50;;
19810;SDS011;10065;49.632;8.346;2023-03-01T00:58:30;16.20;;;8.07;;
19810;SDS011;10065;49.632;8.346;2023-03-01T01:00:59;15.77;;;8.23;;
19810;SDS011;10065;49.632;8.346;2023-03-01T01:03:27;15.37;;;7.57;;
19810;SDS011;10065;49.632;8.346;2023-03-01T01:05:54;17.27;;;8.67;;
19810;SDS011;10065;49.632;8.346;2023-03-01T01:08:22;19.33;;;8.67;;
19810;SDS011;10065;49.632;8.346;2023-03-01T01:10:49;16.20;;;8.30;;
19810;SDS011;10065;49.632;8.346;2023-03-01T01:13:18;20.20;;;9.30;;
19810;SDS011;10065;49.632;8.346;2023-03-01T01:15:46;15.37;;;8.47;;
19810;SDS011;10065;49.632;8.346;2023-03-01T01:18:14;16.90;;;7.50;;
19810;SDS011;10065;49.632;8.346;2023-03-01T01:20:42;15.10;;;8.43;;
19810;SDS011;10065;49.632;8.346;2023-03-01T01:23:09;16.80;;;8.20;;
19810;SDS011;10065;49.632;8.346;2023-03-01T01:25:37;17.40;;;7.90;;
19810;SDS011;10065;49.632;8.346;2023-03-01T01:28:05;16.07;;;7.93;;
19810;SDS011;10065;49.632;8.346;2023-03-01T01:30:34;15.77;;;8.47;;
19810;SDS011;10065;49.632;8.346;2023-03-01T01:33:01;17.47;;;8.53;;
19810;SDS011;10065;49.632;8.346;2023-03-01T01:35:29;16.03;;;7.87;;
19810;SDS011;10065;49.632;8.346;2023-03-01T01:37:57;15.80;;;7.90;;
19810;SDS011;10065;49.632;8.346;2023-03-01T01:40:25;15.87;;;8.70;;
19810;SDS011;10065;49.632;8.346;2023-03-01T01:42:52;16.10;;;8.80;;
19810;SDS011;10065;49.632;8.346;2023-03-01T01:45:31;18.47;;;8.30;;
19810;SDS011;10065;49.632;8.346;2023-03-01T01:48:02;16.93;;;8.43;;
19810;SDS011;10065;49.632;8.346;2023-03-01T01:50:32;17.27;;;8.70;;
19810;SDS011;10065;49.632;8.346;2023-03-01T01:53:05;19.13;;;8.50;;
19810;SDS011;10065;49.632;8.346;2023-03-01T01:55:36;17.30;;;7.93;;
19810;SDS011;10065;49.632;8.346;2023-03-01T01:58:08;17.47;;;8.13;;
19810;SDS011;10065;49.632;8.346;2023-03-01T02:00:38;14.07;;;8.53;;
19810;SDS011;10065;49.632;8.346;2023-03-01T02:03:08;15.40;;;7.77;;
19810;SDS011;10065;49.632;8.346;2023-03-01T02:05:40;15.60;;;8.37;;
19810;SDS011;10065;49.632;8.346;2023-03-01T02:08:20;18.50;;;8.70;;
19810;SDS011;10065;49.632;8.346;2023-03-01T02:10:50;15.57;;;8.03;;
19810;SDS011;10065;49.632;8.346;2023-03-01T02:13:20;17.23;;;8.57;;
19810;SDS011;10065;49.632;8.346;2023-03-01T02:15:48;18.47;;;8.50;;
19810;SDS011;10065;49.632;8.346;2023-03-01T02:18:18;16.80;;;8.70;;
19810;SDS011;10065;49.632;8.346;2023-03-01T02:20:50;18.97;;;9.13;;
19810;SDS011;10065;49.632;8.346;2023-03-01T02:23:32;20.03;;;9.43;;
19810;SDS011;10065;49.632;8.346;2023-03-01T02:26:03;18.07;;;8.87;;
19810;SDS011;10065;49.632;8.346;2023-03-01T02:28:36;17.23;;;8.00;;
19810;SDS011;10065;49.632;8.346;2023-03-01T02:31:07;16.73;;;7.53;;
19810;SDS011;10065;49.632;8.346;2023-03-01T02:33:53;16.30;;;8.93;;
19810;SDS011;10065;49.632;8.346;2023-03-01T02:36:22;17.07;;;7.83;;
19810;SDS011;10065;49.632;8.346;2023-03-01T02:38:55;18.90;;;8.70;;
19810;SDS011;10065;49.632;8.346;2023-03-01T02:41:26;16.77;;;8.70;;
19810;SDS011;10065;49.632;8.346;2023-03-01T02:43:59;18.33;;;8.60;;
19810;SDS011;10065;49.632;8.346;2023-03-01T02:46:27;16.80;;;8.60;;
19810;SDS011;10065;49.632;8.346;2023-03-01T02:48:56;17.87;;;8.73;;
19810;SDS011;10065;49.632;8.346;2023-03-01T02:51:27;17.13;;;8.23;;
19810;SDS011;10065;49.632;8.346;2023-03-01T02:54:07;16.57;;;8.47;;
19810;SDS011;10065;49.632;8.346;2023-03-01T02:56:40;15.07;;;8.30;;
19810;SDS011;10065;49.632;8.346;2023-03-01T02:59:10;18.53;;;9.27;;
19810;SDS011;10065;49.632;8.346;2023-03-01T03:01:38;15.40;;;8.50;;
19810;SDS011;10065;49.632;8.346;2023-03-01T03:04:07;19.37;;;9.13;;
19810;SDS011;10065;49.632;8.346;2023-03-01T03:06:37;23.07;;;10.07;;
19810;SDS011;10065;49.632;8.346;2023-03-01T03:09:04;16.73;;;8.73;;
19810;SDS011;10065;49.632;8.346;2023-03-01T03:11:34;19.43;;;9.10;;
19810;SDS011;10065;49.632;8.346;2023-03-01T03:14:03;16.87;;;9.50;;
19810;SDS011;10065;49.632;8.346;2023-03-01T03:16:32;23.50;;;9.67;;
19810;SDS011;10065;49.632;8.346;2023-03-01T03:18:59;19.20;;;9.27;;
19810;SDS011;10065;49.632;8.346;2023-03-01T03:21:31;17.20;;;9.20;;
19810;SDS011;10065;49.632;8.346;2023-03-01T03:23:58;17.83;;;9.10;;
19810;SDS011;10065;49.632;8.346;2023-03-01T03:26:26;18.00;;;9.13;;
19810;SDS011;10065;49.632;8.346;2023-03-01T03:28:55;16.37;;;8.97;;
19810;SDS011;10065;49.632;8.346;2023-03-01T03:31:23;16.53;;;9.03;;
19810;SDS011;10065;49.632;8.346;2023-03-01T03:33:52;18.87;;;9.53;;
19810;SDS011;10065;49.632;8.346;2023-03-01T03:36:21;20.97;;;9.20;;
19810;SDS011;10065;49.632;8.346;2023-03-01T03:38:50;20.67;;;9.33;;
19810;SDS011;10065;49.632;8.346;2023-03-01T03:41:18;17.87;;;9.10;;
19810;SDS011;10065;49.632;8.346;2023-03-01T03:43:45;16.53;;;8.50;;
19810;SDS011;10065;49.632;8.346;2023-03-01T03:46:15;18.70;;;9.53;;
19810;SDS011;10065;49.632;8.346;2023-03-01T03:48:43;20.30;;;9.27;;
19810;SDS011;10065;49.632;8.346;2023-03-01T03:51:14;19.33;;;9.80;;
19810;SDS011;10065;49.632;8.346;2023-03-01T03:53:43;15.60;;;8.73;;
19810;SDS011;10065;49.632;8.346;2023-03-01T03:56:12;20.43;;;9.83;;
19810;SDS011;10065;49.632;8.346;2023-03-01T03:58:40;19.93;;;9.83;;
19810;SDS011;10065;49.632;8.346;2023-03-01T04:01:07;18.53;;;9.60;;
19810;SDS011;10065;49.632;8.346;2023-03-01T04:03:35;19.70;;;9.80;;
19810;SDS011;10065;49.632;8.346;2023-03-01T04:06:03;27.43;;;9.93;;
19810;SDS011;10065;49.632;8.346;2023-03-01T04:08:33;24.63;;;10.13;;
19810;SDS011;10065;49.632;8.346;2023-03-01T04:11:02;18.33;;;9.70;;
19810;SDS011;10065;49.632;8.346;2023-03-01T04:13:45;18.07;;;9.57;;
19810;SDS011;10065;49.632;8.346;2023-03-01T04:16:12;23.50;;;9.97;;
19810;SDS011;10065;49.632;8.346;2023-03-01T04:18:40;18.77;;;10.13;;
19810;SDS011;10065;49.632;8.346;2023-03-01T04:21:08;19.73;;;10.27;;
19810;SDS011;10065;49.632;8.346;2023-03-01T04:23:38;25.17;;;10.17;;
19810;SDS011;10065;49.632;8.346;2023-03-01T04:26:07;22.00;;;9.73;;
19810;SDS011;10065;49.632;8.346;2023-03-01T04:28:36;20.10;;;9.47;;
19810;SDS011;10065;49.632;8.346;2023-03-01T04:31:06;20.23;;;10.47;;
19810;SDS011;10065;49.632;8.346;2023-03-01T04:33:40;21.63;;;10.33;;
19810;SDS011;10065;49.632;8.346;2023-03-01T04:36:09;21.67;;;9.83;;
19810;SDS011;10065;49.632;8.346;2023-03-01T04:38:38;22.40;;;10.30;;
19810;SDS011;10065;49.632;8.346;2023-03-01T04:41:07;20.97;;;10.60;;
19810;SDS011;10065;49.632;8.346;2023-03-01T04:43:37;21.23;;;10.03;;
19810;SDS011;10065;49.632;8.346;2023-03-01T04:46:05;21.07;;;10.00;;
19810;SDS011;10065;49.632;8.346;2023-03-01T04:48:35;19.80;;;10.50;;
19810;SDS011;10065;49.632;8.346;2023-03-01T04:51:04;22.50;;;10.70;;
19810;SDS011;10065;49.632;8.346;2023-03-01T04:53:32;18.13;;;9.67;;
19810;SDS011;10065;49.632;8.346;2023-03-01T04:56:03;23.27;;;10.47;;
19810;SDS011;10065;49.632;8.346;2023-03-01T04:58:32;22.67;;;10.10;;
19810;SDS011;10065;49.632;8.346;2023-03-01T05:01:00;21.50;;;10.03;;
19810;SDS011;10065;49.632;8.346;2023-03-01T05:03:27;23.00;;;10.70;;
19810;SDS011;10065;49.632;8.346;2023-03-01T05:05:58;23.80;;;10.67;;
19810;SDS011;10065;49.632;8.346;2023-03-01T05:08:26;21.63;;;9.77;;
19810;SDS011;10065;49.632;8.346;2023-03-01T05:10:54;22.50;;;10.07;;
19810;SDS011;10065;49.632;8.346;2023-03-01T05:13:23;21.57;;;10.37;;
19810;SDS011;10065;49.632;8.346;2023-03-01T05:15:53;20.53;;;10.63;;
19810;SDS011;10065;49.632;8.346;2023-03-01T05:18:22;18.20;;;10.53;;
19810;SDS011;10065;49.632;8.346;2023-03-01T05:20:51;18.93;;;9.30;;
19810;SDS011;10065;49.632;8.346;2023-03-01T05:23:22;18.27;;;9.53;;
19810;SDS011;10065;49.632;8.346;2023-03-01T05:25:50;21.77;;;10.20;;
19810;SDS011;10065;49.632;8.346;2023-03-01T05:28:18;19.57;;;9.90;;
19810;SDS011;10065;49.632;8.346;2023-03-01T05:30:48;22.20;;;10.40;;
19810;SDS011;10065;49.632;8.346;2023-03-01T05:33:18;24.27;;;10.77;;
19810;SDS011;10065;49.632;8.346;2023-03-01T05:35:48;24.67;;;10.10;;
19810;SDS011;10065;49.632;8.346;2023-03-01T05:38:16;29.40;;;11.10;;
19810;SDS011;10065;49.632;8.346;2023-03-01T05:40:45;20.40;;;10.67;;
19810;SDS011;10065;49.632;8.346;2023-03-01T05:43:15;22.07;;;10.67;;
19810;SDS011;10065;49.632;8.346;2023-03-01T05:45:44;21.50;;;11.37;;
19810;SDS011;10065;49.632;8.346;2023-03-01T05:48:14;20.63;;;10.07;;
19810;SDS011;10065;49.632;8.346;2023-03-01T05:50:42;21.13;;;10.67;;
19810;SDS011;10065;49.632;8.346;2023-03-01T05:53:12;23.60;;;11.07;;
19810;SDS011;10065;49.632;8.346;2023-03-01T05:55:42;26.00;;;10.87;;
19810;SDS011;10065;49.632;8.346;2023-03-01T05:58:13;24.57;;;11.60;;
19810;SDS011;10065;49.632;8.346;2023-03-01T06:00:42;21.87;;;11.17;;
19810;SDS011;10065;49.632;8.346;2023-03-01T06:03:12;22.67;;;10.47;;
19810;SDS011;10065;49.632;8.346;2023-03-01T06:05:42;21.67;;;10.93;;
19810;SDS011;10065;49.632;8.346;2023-03-01T06:08:11;23.90;;;11.07;;
19810;SDS011;10065;49.632;8.346;2023-03-01T06:10:40;24.73;;;11.40;;
19810;SDS011;10065;49.632;8.346;2023-03-01T06:13:08;21.00;;;10.73;;
19810;SDS011;10065;49.632;8.346;2023-03-01T06:15:36;24.73;;;11.50;;
19810;SDS011;10065;49.632;8.346;2023-03-01T06:18:04;21.73;;;11.53;;
19810;SDS011;10065;49.632;8.346;2023-03-01T06:20:33;21.13;;;11.13;;
19810;SDS011;10065;49.632;8.346;2023-03-01T06:23:01;21.83;;;11.60;;
19810;SDS011;10065;49.632;8.346;2023-03-01T06:25:29;22.10;;;11.20;;
19810;SDS011;10065;49.632;8.346;2023-03-01T06:27:57;30.43;;;10.73;;
19810;SDS011;10065;49.632;8.346;2023-03-01T06:30:25;22.67;;;11.33;;
19810;SDS011;10065;49.632;8.346;2023-03-01T06:32:53;26.93;;;12.57;;
19810;SDS011;10065;49.632;8.346;2023-03-01T06:35:29;25.60;;;12.23;;
19810;SDS011;10065;49.632;8.346;2023-03-01T06:37:59;20.60;;;11.03;;
19810;SDS011;10065;49.632;8.346;2023-03-01T06:40:28;22.20;;;10.70;;
19810;SDS011;10065;49.632;8.346;2023-03-01T06:42:57;21.00;;;11.60;;
19810;SDS011;10065;49.632;8.346;2023-03-01T06:45:25;23.23;;;11.90;;
19810;SDS011;10065;49.632;8.346;2023-03-01T06:48:00;27.93;;;12.00;;
19810;SDS011;10065;49.632;8.346;2023-03-01T06:50:29;27.13;;;10.80;;
19810;SDS011;10065;49.632;8.346;2023-03-01T06:52:59;25.87;;;11.40;;
19810;SDS011;10065;49.632;8.346;2023-03-01T06:55:27;22.00;;;11.93;;
19810;SDS011;10065;49.632;8.346;2023-03-01T06:57:55;23.17;;;10.57;;
19810;SDS011;10065;49.632;8.346;2023-03-01T07:00:23;20.33;;;11.57;;
19810;SDS011;10065;49.632;8.346;2023-03-01T07:02:51;24.77;;;11.50;;
19810;SDS011;10065;49.632;8.346;2023-03-01T07:05:19;25.20;;;11.17;;
19810;SDS011;10065;49.632;8.346;2023-03-01T07:07:47;25.57;;;12.13;;
19810;SDS011;10065;49.632;8.346;2023-03-01T07:10:16;23.53;;;12.10;;
19810;SDS011;10065;49.632;8.346;2023-03-01T07:12:44;26.87;;;12.23;;
19810;SDS011;10065;49.632;8.346;2023-03-01T07:15:12;22.17;;;12.40;;
19810;SDS011;10065;49.632;8.346;2023-03-01T07:17:41;26.00;;;12.23;;
19810;SDS011;10065;49.632;8.346;2023-03-01T07:20:11;22.17;;;10.27;;
19810;SDS011;10065;49.632;8.346;2023-03-01T07:22:39;25.07;;;12.33;;
19810;SDS011;10065;49.632;8.346;2023-03-01T07:25:08;24.40;;;11.40;;
19810;SDS011;10065;49.632;8.346;2023-03-01T07:27:37;21.73;;;11.30;;
19810;SDS011;10065;49.632;8.346;2023-03-01T07:30:05;22.87;;;11.27;;
19810;SDS011;10065;49.632;8.346;2023-03-01T07:32:34;23.73;;;11.87;;
19810;SDS011;10065;49.632;8.346;2023-03-01T07:35:02;22.47;;;12.07;;
19810;SDS011;10065;49.632;8.346;2023-03-01T07:37:30;22.83;;;11.40;;
19810;SDS011;10065;49.632;8.346;2023-03-01T07:39:58;24.20;;;13.37;;
19810;SDS011;10065;49.632;8.346;2023-03-01T07:42:25;20.93;;;11.67;;
19810;SDS011;10065;49.632;8.346;2023-03-01T07:44:55;24.10;;;12.40;;
19810;SDS011;10065;49.632;8.346;2023-03-01T07:47:22;20.63;;;11.37;;
19810;SDS011;10065;49.632;8.346;2023-03-01T07:49:50;22.93;;;11.57;;
19810;SDS011;10065;49.632;8.346;2023-03-01T07:52:18;20.57;;;11.37;;
19810;SDS011;10065;49.632;8.346;2023-03-01T07:54:45;25.33;;;11.60;;
19810;SDS011;10065;49.632;8.346;2023-03-01T07:57:13;25.50;;;12.90;;
19810;SDS011;10065;49.632;8.346;2023-03-01T07:59:41;21.37;;;11.87;;
19810;SDS011;10065;49.632;8.346;2023-03-01T08:02:10;28.97;;;11.17;;
19810;SDS011;10065;49.632;8.346;2023-03-01T08:04:38;25.80;;;12.20;;
19810;SDS011;10065;49.632;8.346;2023-03-01T08:07:05;31.40;;;12.43;;
19810;SDS011;10065;49.632;8.346;2023-03-01T08:09:34;20.90;;;11.63;;
19810;SDS011;10065;49.632;8.346;2023-03-01T08:12:02;20.23;;;11.27;;
19810;SDS011;10065;49.632;8.346;2023-03-01T08:14:30;27.37;;;12.10;;
19810;SDS011;10065;49.632;8.346;2023-03-01T08:16:58;21.30;;;11.83;;
19810;SDS011;10065;49.632;8.346;2023-03-01T08:19:28;28.50;;;12.07;;
19810;SDS011;10065;49.632;8.346;2023-03-01T08:21:56;22.73;;;12.33;;
19810;SDS011;10065;49.632;8.346;2023-03-01T08:24:26;24.27;;;12.47;;
19810;SDS011;10065;49.632;8.346;2023-03-01T08:26:54;27.30;;;12.27;;
19810;SDS011;10065;49.632;8.346;2023-03-01T08:29:22;26.07;;;12.57;;
19810;SDS011;10065;49.632;8.346;2023-03-01T08:31:50;26.23;;;12.10;;
19810;SDS011;10065;49.632;8.346;2023-03-01T08:34:18;23.17;;;12.37;;
19810;SDS011;10065;49.632;8.346;2023-03-01T08:36:48;22.63;;;11.43;;
19810;SDS011;10065;49.632;8.346;2023-03-01T08:39:16;22.73;;;12.90;;
19810;SDS011;10065;49.632;8.346;2023-03-01T08:41:45;28.10;;;12.07;;
19810;SDS011;10065;49.632;8.346;2023-03-01T08:44:14;22.13;;;12.63;;
19810;SDS011;10065;49.632;8.346;2023-03-01T08:46:43;20.20;;;11.50;;
19810;SDS011;10065;49.632;8.346;2023-03-01T08:49:14;21.80;;;13.00;;
19810;SDS011;10065;49.632;8.346;2023-03-01T08:51:48;24.13;;;13.40;;
19810;SDS011;10065;49.632;8.346;2023-03-01T08:54:17;24.20;;;12.83;;
19810;SDS011;10065;49.632;8.346;2023-03-01T08:56:46;19.97;;;12.03;;
19810;SDS011;10065;49.632;8.346;2023-03-01T08:59:15;22.10;;;13.43;;
19810;SDS011;10065;49.632;8.346;2023-03-01T09:01:44;25.53;;;13.70;;
19810;SDS011;10065;49.632;8.346;2023-03-01T09:04:12;21.60;;;12.77;;
19810;SDS011;10065;49.632;8.346;2023-03-01T09:06:41;22.67;;;13.20;;
19810;SDS011;10065;49.632;8.346;2023-03-01T09:09:13;21.70;;;13.13;;
19810;SDS011;10065;49.632;8.346;2023-03-01T09:11:43;22.37;;;13.73;;
19810;SDS011;10065;49.632;8.346;2023-03-01T09:14:16;24.87;;;14.37;;
19810;SDS011;10065;49.632;8.346;2023-03-01T09:16:44;22.73;;;14.07;;
19810;SDS011;10065;49.632;8.346;2023-03-01T09:19:12;23.03;;;14.90;;
19810;SDS011;10065;49.632;8.346;2023-03-01T09:21:40;21.03;;;14.97;;
19810;SDS011;10065;49.632;8.346;2023-03-01T09:24:20;21.80;;;14.07;;
19810;SDS011;10065;49.632;8.346;2023-03-01T09:26:49;21.97;;;15.10;;
19810;SDS011;10065;49.632;8.346;2023-03-01T09:29:19;17.67;;;13.30;;
19810;SDS011;10065;49.632;8.346;2023-03-01T09:31:48;17.83;;;13.80;;
19810;SDS011;10065;49.632;8.346;2023-03-01T09:34:16;19.43;;;13.90;;
19810;SDS011;10065;49.632;8.346;2023-03-01T09:36:49;21.13;;;15.17;;
19810;SDS011;10065;49.632;8.346;2023-03-01T09:39:17;19.63;;;14.67;;
19810;SDS011;10065;49.632;8.346;2023-03-01T09:41:49;25.83;;;14.67;;
19810;SDS011;10065;49.632;8.346;2023-03-01T09:44:26;17.80;;;13.67;;
19810;SDS011;10065;49.632;8.346;2023-03-01T09:46:58;19.80;;;14.23;;
19810;SDS011;10065;49.632;8.346;2023-03-01T09:49:27;18.03;;;13.50;;
19810;SDS011;10065;49.632;8.346;2023-03-01T09:51:59;17.70;;;14.07;;
19810;SDS011;10065;49.632;8.346;2023-03-01T09:54:32;21.40;;;14.57;;
19810;SDS011;10065;49.632;8.346;2023-03-01T09:57:08;20.17;;;14.77;;
19810;SDS011;10065;49.632;8.346;2023-03-01T09:59:54;23.03;;;15.10;;
19810;SDS011;10065;49.632;8.346;2023-03-01T10:02:38;19.00;;;14.30;;
19810;SDS011;10065;49.632;8.346;2023-03-01T10:05:12;23.67;;;14.67;;
19810;SDS011;10065;49.632;8.346;2023-03-01T10:07:51;20.47;;;14.73;;
19810;SDS011;10065;49.632;8.346;2023-03-01T10:10:32;21.00;;;15.07;;
19810;SDS011;10065;49.632;8.346;2023-03-01T10:13:04;23.93;;;16.13;;
19810;SDS011;10065;49.632;8.346;2023-03-01T10:15:42;21.63;;;15.93;;
19810;SDS011;10065;49.632;8.346;2023-03-01T10:18:16;22.77;;;15.63;;
19810;SDS011;10065;49.632;8.346;2023-03-01T10:20:48;22.15;;;16.27;;
19810;SDS011;10065;49.632;8.346;2023-03-01T10:23:22;28.25;;;16.00;;
19810;SDS011;10065;49.632;8.346;2023-03-01T10:25:56;19.10;;;15.63;;
19810;SDS011;10065;49.632;8.346;2023-03-01T10:28:36;19.40;;;15.65;;
19810;SDS011;10065;49.632;8.346;2023-03-01T10:31:12;18.15;;;14.88;;
19810;SDS011;10065;49.632;8.346;2023-03-01T10:33:42;28.65;;;15.52;;
19810;SDS011;10065;49.632;8.346;2023-03-01T10:36:09;19.92;;;15.18;;
19810;SDS011;10065;49.632;8.346;2023-03-01T10:38:47;21.65;;;16.75;;
19810;SDS011;10065;49.632;8.346;2023-03-01T10:41:20;19.40;;;15.27;;
19810;SDS011;10065;49.632;8.346;2023-03-01T10:43:51;21.52;;;16.00;;
19810;SDS011;10065;49.632;8.346;2023-03-01T10:46:24;23.98;;;16.20;;
19810;SDS011;10065;49.632;8.346;2023-03-01T10:49:07;18.25;;;15.00;;
19810;SDS011;10065;49.632;8.346;2023-03-01T10:51:41;17.10;;;15.00;;
19810;SDS011;10065;49.632;8.346;2023-03-01T10:54:16;17.75;;;14.93;;
19810;SDS011;10065;49.632;8.346;2023-03-01T10:56:50;18.23;;;15.77;;
19810;SDS011;10065;49.632;8.346;2023-03-01T10:59:26;22.73;;;15.55;;
19810;SDS011;10065;49.632;8.346;2023-03-01T11:02:03;19.20;;;16.23;;
19810;SDS011;10065;49.632;8.346;2023-03-01T11:04:57;23.05;;;16.08;;
19810;SDS011;10065;49.632;8.346;2023-03-01T11:07:26;20.80;;;16.15;;
19810;SDS011;10065;49.632;8.346;2023-03-01T11:09:54;22.30;;;16.05;;
19810;SDS011;10065;49.632;8.346;2023-03-01T11:12:24;20.52;;;16.73;;
19810;SDS011;10065;49.632;8.346;2023-03-01T11:14:55;20.83;;;16.67;;
19810;SDS011;10065;49.632;8.346;2023-03-01T11:17:24;21.05;;;16.40;;
19810;SDS011;10065;49.632;8.346;2023-03-01T11:20:02;21.60;;;16.73;;
19810;SDS011;10065;49.632;8.346;2023-03-01T11:22:44;20.67;;;15.83;;
19810;SDS011;10065;49.632;8.346;2023-03-01T11:25:15;20.60;;;16.40;;
19810;SDS011;10065;49.632;8.346;2023-03-01T11:27:46;21.03;;;15.97;;
19810;SDS011;10065;49.632;8.346;2023-03-01T11:30:16;22.67;;;16.83;;
19810;SDS011;10065;49.632;8.346;2023-03-01T11:32:48;26.23;;;16.13;;
19810;SDS011;10065;49.632;8.346;2023-03-01T11:35:25;24.77;;;17.37;;
19810;SDS011;10065;49.632;8.346;2023-03-01T11:37:58;21.87;;;16.10;;
19810;SDS011;10065;49.632;8.346;2023-03-01T11:40:33;21.60;;;15.30;;
19810;SDS011;10065;49.632;8.346;2023-03-01T11:43:06;24.67;;;16.03;;
19810;SDS011;10065;49.632;8.346;2023-03-01T11:45:42;21.00;;;15.80;;
19810;SDS011;10065;49.632;8.346;2023-03-01T11:48:29;25.37;;;15.53;;
19810;SDS011;10065;49.632;8.346;2023-03-01T11:51:16;20.67;;;14.83;;
19810;SDS011;10065;49.632;8.346;2023-03-01T11:53:54;19.70;;;15.02;;
19810;SDS011;10065;49.632;8.346;2023-03-01T11:56:32;20.80;;;15.77;;
19810;SDS011;10065;49.632;8.346;2023-03-01T11:59:06;23.70;;;16.30;;
19810;SDS011;10065;49.632;8.346;2023-03-01T12:01:57;18.75;;;14.43;;
19810;SDS011;10065;49.632;8.346;2023-03-01T12:07:42;20.70;;;15.82;;
19810;SDS011;10065;49.632;8.346;2023-03-01T12:10:19;19.30;;;13.98;;
19810;SDS011;10065;49.632;8.346;2023-03-01T12:12:57;19.08;;;15.82;;
19810;SDS011;10065;49.632;8.346;2023-03-01T12:15:50;18.45;;;15.32;;
19810;SDS011;10065;49.632;8.346;2023-03-01T12:18:50;19.00;;;15.65;;
19810;SDS011;10065;49.632;8.346;2023-03-01T12:21:41;18.40;;;14.77;;
19810;SDS011;10065;49.632;8.346;2023-03-01T12:24:23;20.27;;;14.68;;
19810;SDS011;10065;49.632;8.346;2023-03-01T12:27:09;19.98;;;15.05;;
19810;SDS011;10065;49.632;8.346;2023-03-01T12:29:46;19.23;;;15.50;;
19810;SDS011;10065;49.632;8.346;2023-03-01T12:32:32;21.65;;;16.40;;
19810;SDS011;10065;49.632;8.346;2023-03-01T12:35:32;20.73;;;15.23;;
19810;SDS011;10065;49.632;8.346;2023-03-01T12:38:15;25.23;;;16.13;;
19810;SDS011;10065;49.632;8.346;2023-03-01T12:41:04;19.50;;;15.27;;
19810;SDS011;10065;49.632;8.346;2023-03-01T12:43:47;19.23;;;15.17;;
19810;SDS011;10065;49.632;8.346;2023-03-01T12:46:28;22.23;;;15.80;;
19810;SDS011;10065;49.632;8.346;2023-03-01T12:49:10;19.90;;;14.90;;
19810;SDS011;10065;49.632;8.346;2023-03-01T12:51:42;20.03;;;14.20;;
19810;SDS011;10065;49.632;8.346;2023-03-01T12:54:20;17.53;;;13.60;;
19810;SDS011;10065;49.632;8.346;2023-03-01T12:56:53;18.80;;;13.63;;
19810;SDS011;10065;49.632;8.346;2023-03-01T12:59:24;19.57;;;13.97;;
19810;SDS011;10065;49.632;8.346;2023-03-01T13:01:57;18.05;;;13.68;;
19810;SDS011;10065;49.632;8.346;2023-03-01T13:04:40;20.13;;;13.55;;
19810;SDS011;10065;49.632;8.346;2023-03-01T13:07:23;19.33;;;13.63;;
19810;SDS011;10065;49.632;8.346;2023-03-01T13:10:00;14.23;;;12.18;;
19810;SDS011;10065;49.632;8.346;2023-03-01T13:12:46;15.30;;;12.48;;
19810;SDS011;10065;49.632;8.346;2023-03-01T13:15:25;18.60;;;12.95;;
19810;SDS011;10065;49.632;8.346;2023-03-01T13:17:54;16.35;;;12.70;;
19810;SDS011;10065;49.632;8.346;2023-03-01T13:20:26;14.85;;;11.75;;
19810;SDS011;10065;49.632;8.346;2023-03-01T13:23:02;16.52;;;12.32;;
19810;SDS011;10065;49.632;8.346;2023-03-01T13:25:33;14.45;;;12.23;;
19810;SDS011;10065;49.632;8.346;2023-03-01T13:31:09;13.82;;;10.63;;
19810;SDS011;10065;49.632;8.346;2023-03-01T13:33:40;13.55;;;10.73;;
19810;SDS011;10065;49.632;8.346;2023-03-01T13:39:28;18.03;;;11.47;;
19810;SDS011;10065;49.632;8.346;2023-03-01T13:42:03;17.47;;;12.30;;
19810;SDS011;10065;49.632;8.346;2023-03-01T13:44:32;13.97;;;9.67;;
19810;SDS011;10065;49.632;8.346;2023-03-01T13:47:03;14.20;;;10.57;;
19810;SDS011;10065;49.632;8.346;2023-03-01T13:49:45;18.97;;;11.77;;
19810;SDS011;10065;49.632;8.346;2023-03-01T13:52:30;17.33;;;10.90;;
19810;SDS011;10065;49.632;8.346;2023-03-01T13:55:06;21.30;;;12.67;;
19810;SDS011;10065;49.632;8.346;2023-03-01T13:57:45;21.17;;;11.43;;
19810;SDS011;10065;49.632;8.346;2023-03-01T14:00:27;18.17;;;10.97;;
19810;SDS011;10065;49.632;8.346;2023-03-01T14:03:04;19.70;;;10.63;;
19810;SDS011;10065;49.632;8.346;2023-03-01T14:05:40;16.50;;;9.83;;
19810;SDS011;10065;49.632;8.346;2023-03-01T14:08:18;16.00;;;10.43;;
19810;SDS011;10065;49.632;8.346;2023-03-01T14:11:08;20.90;;;10.23;;
19810;SDS011;10065;49.632;8.346;2023-03-01T14:14:09;15.47;;;10.00;;
19810;SDS011;10065;49.632;8.346;2023-03-01T14:16:51;20.53;;;9.97;;
19810;SDS011;10065;49.632;8.346;2023-03-01T14:19:26;18.27;;;10.17;;
19810;SDS011;10065;49.632;8.346;2023-03-01T14:21:59;23.67;;;9.97;;
19810;SDS011;10065;49.632;8.346;2023-03-01T14:24:33;17.93;;;9.63;;
19810;SDS011;10065;49.632;8.346;2023-03-01T14:27:10;19.07;;;10.13;;
19810;SDS011;10065;49.632;8.346;2023-03-01T14:29:39;18.00;;;10.63;;
19810;SDS011;10065;49.632;8.346;2023-03-01T14:32:12;18.63;;;11.10;;
19810;SDS011;10065;49.632;8.346;2023-03-01T14:34:47;20.37;;;10.77;;
19810;SDS011;10065;49.632;8.346;2023-03-01T14:37:18;25.23;;;11.03;;
19810;SDS011;10065;49.632;8.346;2023-03-01T14:39:48;17.77;;;10.33;;
19810;SDS011;10065;49.632;8.346;2023-03-01T14:42:17;17.23;;;9.97;;
19810;SDS011;10065;49.632;8.346;2023-03-01T14:44:47;17.00;;;10.17;;
19810;SDS011;10065;49.632;8.346;2023-03-01T14:47:20;18.40;;;10.40;;
19810;SDS011;10065;49.632;8.346;2023-03-01T14:49:54;16.43;;;9.83;;
19810;SDS011;10065;49.632;8.346;2023-03-01T14:52:27;17.87;;;10.40;;
19810;SDS011;10065;49.632;8.346;2023-03-01T14:55:02;20.13;;;10.13;;
19810;SDS011;10065;49.632;8.346;2023-03-01T14:57:35;16.73;;;10.27;;
19810;SDS011;10065;49.632;8.346;2023-03-01T15:00:03;17.90;;;10.07;;
19810;SDS011;10065;49.632;8.346;2023-03-01T15:02:34;16.20;;;9.17;;